sensor_id;sensor_type;location;lat;lon;timestamp;P1;durP1;ratioP1;P2;durP2;ratioP2
9042;SDS011;4556;49.150;8.808;2023-05-07T00:01:32;7.17;;;3.37;;
9042;SDS011;4556;49.150;8.808;2023-05-07T00:04:00;3.60;;;3.30;;
9042;SDS011;4556;49.150;8.808;2023-05-07T00:06:28;6.03;;;3.47;;
9042;SDS011;4556;49.150;8.808;2023-05-07T00:08:56;5.30;;;3.83;;
9042;SDS011;4556;49.150;8.808;2023-05-07T00:11:25;3.83;;;3.37;;
9042;SDS011;4556;49.150;8.808;2023-05-07T00:14:07;3.57;;;3.27;;
9042;SDS011;4556;49.150;8.808;2023-05-07T00:16:34;4.07;;;3.60;;
9042;SDS011;4556;49.150;8.808;2023-05-07T00:19:01;5.47;;;3.30;;
9042;SDS011;4556;49.150;8.808;2023-05-07T00:21:30;4.07;;;3.37;;
9042;SDS011;4556;49.150;8.808;2023-05-07T00:23:57;4.67;;;3.80;;
9042;SDS011;4556;49.150;8.808;2023-05-07T00:26:25;3.67;;;3.10;;
9042;SDS011;4556;49.150;8.808;2023-05-07T00:28:52;4.10;;;3.20;;
9042;SDS011;4556;49.150;8.808;2023-05-07T00:31:25;3.43;;;2.87;;
9042;SDS011;4556;49.150;8.808;2023-05-07T00:33:58;3.53;;;3.23;;
9042;SDS011;4556;49.150;8.808;2023-05-07T00:36:37;4.80;;;3.37;;
9042;SDS011;4556;49.150;8.808;2023-05-07T00:39:05;6.53;;;3.47;;
9042;SDS011;4556;49.150;8.808;2023-05-07T00:41:32;3.30;;;2.97;;
9042;SDS011;4556;49.150;8.808;2023-05-07T00:44:18;8.27;;;3.07;;
9042;SDS011;4556;49.150;8.808;2023-05-07T00:46:51;5.73;;;3.47;;
9042;SDS011;4556;49.150;8.808;2023-05-07T00:49:25;3.43;;;3.13;;
9042;SDS011;4556;49.150;8.808;2023-05-07T00:52:03;6.47;;;2.90;;
9042;SDS011;4556;49.150;8.808;2023-05-07T00:54:32;4.10;;;2.47;;
9042;SDS011;4556;49.150;8.808;2023-05-07T00:57:07;4.00;;;2.90;;
9042;SDS011;4556;49.150;8.808;2023-05-07T00:59:38;3.20;;;2.87;;
9042;SDS011;4556;49.150;8.808;2023-05-07T01:02:06;4.77;;;3.00;;
9042;SDS011;4556;49.150;8.808;2023-05-07T01:04:47;3.80;;;3.40;;
9042;SDS011;4556;49.150;8.808;2023-05-07T01:07:16;4.17;;;3.17;;
9042;SDS011;4556;49.150;8.808;2023-05-07T01:09:43;3.30;;;3.00;;
9042;SDS011;4556;49.150;8.808;2023-05-07T01:12:26;5.40;;;3.00;;
9042;SDS011;4556;49.150;8.808;2023-05-07T01:14:54;4.43;;;3.27;;
9042;SDS011;4556;49.150;8.808;2023-05-07T01:17:22;3.70;;;3.30;;
9042;SDS011;4556;49.150;8.808;2023-05-07T01:19:49;5.30;;;3.07;;
9042;SDS011;4556;49.150;8.808;2023-05-07T01:22:25;3.80;;;2.97;;
9042;SDS011;4556;49.150;8.808;2023-05-07T01:24:57;4.73;;;3.03;;
9042;SDS011;4556;49.150;8.808;2023-05-07T01:27:24;6.33;;;3.10;;
9042;SDS011;4556;49.150;8.808;2023-05-07T01:30:12;2.97;;;2.77;;
9042;SDS011;4556;49.150;8.808;2023-05-07T01:32:42;7.43;;;3.50;;
9042;SDS011;4556;49.150;8.808;2023-05-07T01:35:15;3.57;;;3.07;;
9042;SDS011;4556;49.150;8.808;2023-05-07T01:37:46;4.10;;;2.93;;
9042;SDS011;4556;49.150;8.808;2023-05-07T01:40:14;3.37;;;2.70;;
9042;SDS011;4556;49.150;8.808;2023-05-07T01:42:41;3.93;;;2.70;;
9042;SDS011;4556;49.150;8.808;2023-05-07T01:45:10;3.43;;;2.70;;
9042;SDS011;4556;49.150;8.808;2023-05-07T01:47:37;2.97;;;2.77;;
9042;SDS011;4556;49.150;8.808;2023-05-07T01:50:15;3.20;;;2.90;;
9042;SDS011;4556;49.150;8.808;2023-05-07T01:52:57;3.70;;;2.97;;
9042;SDS011;4556;49.150;8.808;2023-05-07T01:55:37;6.63;;;3.47;;
9042;SDS011;4556;49.150;8.808;2023-05-07T01:58:05;7.90;;;5.70;;
9042;SDS011;4556;49.150;8.808;2023-05-07T02:00:32;5.70;;;4.60;;
9042;SDS011;4556;49.150;8.808;2023-05-07T02:02:59;6.20;;;3.93;;
9042;SDS011;4556;49.150;8.808;2023-05-07T02:05:30;4.30;;;3.37;;
9042;SDS011;4556;49.150;8.808;2023-05-07T02:08:03;3.70;;;3.23;;
9042;SDS011;4556;49.150;8.808;2023-05-07T02:10:37;4.67;;;3.20;;
9042;SDS011;4556;49.150;8.808;2023-05-07T02:13:04;6.07;;;3.20;;
9042;SDS011;4556;49.150;8.808;2023-05-07T02:15:31;5.60;;;3.40;;
9042;SDS011;4556;49.150;8.808;2023-05-07T02:17:58;5.13;;;3.63;;
9042;SDS011;4556;49.150;8.808;2023-05-07T02:20:26;3.43;;;3.13;;
9042;SDS011;4556;49.150;8.808;2023-05-07T02:22:53;3.90;;;3.50;;
9042;SDS011;4556;49.150;8.808;2023-05-07T02:25:22;3.97;;;3.57;;
9042;SDS011;4556;49.150;8.808;2023-05-07T02:27:49;4.30;;;3.50;;
9042;SDS011;4556;49.150;8.808;2023-05-07T02:30:16;5.23;;;3.33;;
9042;SDS011;4556;49.150;8.808;2023-05-07T02:32:46;4.13;;;3.43;;
9042;SDS011;4556;49.150;8.808;2023-05-07T02:35:26;4.63;;;3.63;;
9042;SDS011;4556;49.150;8.808;2023-05-07T02:37:53;6.97;;;3.50;;
9042;SDS011;4556;49.150;8.808;2023-05-07T02:40:22;5.23;;;3.40;;
9042;SDS011;4556;49.150;8.808;2023-05-07T02:42:49;3.87;;;3.47;;
9042;SDS011;4556;49.150;8.808;2023-05-07T02:45:16;3.40;;;3.10;;
9042;SDS011;4556;49.150;8.808;2023-05-07T02:47:49;4.97;;;3.70;;
9042;SDS011;4556;49.150;8.808;2023-05-07T02:50:16;4.27;;;3.47;;
9042;SDS011;4556;49.150;8.808;2023-05-07T02:52:45;3.83;;;3.03;;
9042;SDS011;4556;49.150;8.808;2023-05-07T02:55:27;5.60;;;3.30;;
9042;SDS011;4556;49.150;8.808;2023-05-07T02:57:58;8.00;;;3.63;;
9042;SDS011;4556;49.150;8.808;2023-05-07T03:00:37;3.50;;;3.20;;
9042;SDS011;4556;49.150;8.808;2023-05-07T03:03:04;5.77;;;3.40;;
9042;SDS011;4556;49.150;8.808;2023-05-07T03:05:31;4.20;;;3.80;;
9042;SDS011;4556;49.150;8.808;2023-05-07T03:07:58;5.33;;;3.23;;
9042;SDS011;4556;49.150;8.808;2023-05-07T03:10:25;4.13;;;3.73;;
9042;SDS011;4556;49.150;8.808;2023-05-07T03:12:53;4.30;;;3.67;;
9042;SDS011;4556;49.150;8.808;2023-05-07T03:15:28;4.80;;;3.97;;
9042;SDS011;4556;49.150;8.808;2023-05-07T03:17:58;4.73;;;3.53;;
9042;SDS011;4556;49.150;8.808;2023-05-07T03:20:31;5.20;;;3.83;;
9042;SDS011;4556;49.150;8.808;2023-05-07T03:23:08;4.70;;;3.77;;
9042;SDS011;4556;49.150;8.808;2023-05-07T03:25:52;4.97;;;3.80;;
9042;SDS011;4556;49.150;8.808;2023-05-07T03:42:03;5.03;;;4.17;;
9042;SDS011;4556;49.150;8.808;2023-05-07T04:23:15;4.97;;;3.70;;
9042;SDS011;4556;49.150;8.808;2023-05-07T04:25:51;4.97;;;3.80;;
9042;SDS011;4556;49.150;8.808;2023-05-07T04:31:01;4.07;;;3.37;;
9042;SDS011;4556;49.150;8.808;2023-05-07T04:33:28;4.57;;;3.50;;
9042;SDS011;4556;49.150;8.808;2023-05-07T04:35:55;5.97;;;3.50;;
9042;SDS011;4556;49.150;8.808;2023-05-07T14:31:54;4.00;;;1.40;;
9042;SDS011;4556;49.150;8.808;2023-05-07T14:34:21;4.03;;;1.23;;
9042;SDS011;4556;49.150;8.808;2023-05-07T14:36:48;3.70;;;1.20;;
9042;SDS011;4556;49.150;8.808;2023-05-07T14:39:15;4.03;;;1.30;;
9042;SDS011;4556;49.150;8.808;2023-05-07T14:41:42;3.60;;;1.43;;
9042;SDS011;4556;49.150;8.808;2023-05-07T14:44:09;8.50;;;1.87;;
9042;SDS011;4556;49.150;8.808;2023-05-07T14:46:36;5.57;;;1.30;;
9042;SDS011;4556;49.150;8.808;2023-05-07T14:49:07;4.27;;;1.40;;
9042;SDS011;4556;49.150;8.808;2023-05-07T14:51:41;7.20;;;1.53;;
9042;SDS011;4556;49.150;8.808;2023-05-07T14:54:11;4.43;;;1.43;;
9042;SDS011;4556;49.150;8.808;2023-05-07T14:56:38;3.10;;;1.17;;
9042;SDS011;4556;49.150;8.808;2023-05-07T14:59:05;2.97;;;1.50;;
9042;SDS011;4556;49.150;8.808;2023-05-07T15:01:33;3.10;;;1.40;;
9042;SDS011;4556;49.150;8.808;2023-05-07T15:04:01;5.30;;;1.50;;
9042;SDS011;4556;49.150;8.808;2023-05-07T16:32:40;4.53;;;1.90;;
9042;SDS011;4556;49.150;8.808;2023-05-07T16:35:09;2.80;;;2.20;;
9042;SDS011;4556;49.150;8.808;2023-05-07T16:37:38;4.77;;;1.93;;
9042;SDS011;4556;49.150;8.808;2023-05-07T16:40:08;3.20;;;2.07;;
9042;SDS011;4556;49.150;8.808;2023-05-07T16:45:21;2.20;;;1.60;;
9042;SDS011;4556;49.150;8.808;2023-05-07T16:47:55;4.07;;;1.90;;
9042;SDS011;4556;49.150;8.808;2023-05-07T16:50:41;3.37;;;1.87;;
9042;SDS011;4556;49.150;8.808;2023-05-07T16:53:10;3.93;;;1.90;;
9042;SDS011;4556;49.150;8.808;2023-05-07T16:55:37;2.27;;;1.80;;
9042;SDS011;4556;49.150;8.808;2023-05-07T16:58:12;2.40;;;1.70;;
9042;SDS011;4556;49.150;8.808;2023-05-07T17:00:39;3.47;;;1.50;;
9042;SDS011;4556;49.150;8.808;2023-05-07T17:03:07;2.20;;;1.30;;
9042;SDS011;4556;49.150;8.808;2023-05-07T17:05:34;2.10;;;1.20;;
9042;SDS011;4556;49.150;8.808;2023-05-07T17:08:10;4.70;;;1.50;;
9042;SDS011;4556;49.150;8.808;2023-05-07T17:10:50;3.60;;;1.50;;
9042;SDS011;4556;49.150;8.808;2023-05-07T17:13:17;1.40;;;1.30;;
9042;SDS011;4556;49.150;8.808;2023-05-07T17:15:44;2.10;;;1.50;;
9042;SDS011;4556;49.150;8.808;2023-05-07T17:18:13;3.77;;;1.60;;
9042;SDS011;4556;49.150;8.808;2023-05-07T17:20:41;1.53;;;1.30;;
9042;SDS011;4556;49.150;8.808;2023-05-07T17:55:06;3.33;;;2.40;;
9042;SDS011;4556;49.150;8.808;2023-05-07T20:31:37;3.67;;;2.43;;
9042;SDS011;4556;49.150;8.808;2023-05-07T21:58:24;5.83;;;5.30;;
